Aeroporto :
LOGIN :

Iscrizione | Disclaimer

   EN    FR    IT 

 










Sommario :    VFR   VFR Marginale   IFR   IFR Intensivo   IFR Molto Intensivo
Visibilità : 
Base nubi : 
>= 8 km
>= 3000ft
5 / 8 km
1000 / 3000 ft
1500m / 5 km
500 / 1000 ft
800 / 1500m
200 / 500 ft
< 800m
< 200 ft
Simboli :   Temporali  Nebbia  Neve Forte  Precipitazioni Forti  Vento > 20 kt
SIGMETs :   Varie  Temporali  Ghiacco  Turbolenza  Onda orograficha  Ceneri Vulcaniche






- Altitudine del aeroporto : 26 ft
- Codice IATA : SYY


EGPO - Stornoway

ULTIMO METAR :
  • 140720Z 27012KT 9999 -SHRA FEW008 BKN015 12/10 Q1013

METARs OBSOLETI :
  • 140650Z 26010KT 9999 VCSH FEW008 BKN014 12/10 Q1013
  • 140620Z 27009KT 9999 -SHRA FEW005 BKN012 12/10 Q1013
  • 140550Z 28012KT 9999 VCSH FEW005 SCT012 11/10 Q1013
  • 140520Z 27009KT 9999 VCSH FEW006 SCT010 11/10 Q1013
  • 140450Z 27010KT 9999 SCT007 SCT010 11/10 Q1013

TAF TAF EGPO
Valido dal 14 a 05 ore il 14 a 12 ore UTC


140527Z 1405/1412 27012KT 9999 SCT012
TEMPO 1405/1408 BKN007
PROB30
TEMPO 1405/1407 4000 RADZ
PROB40
TEMPO 1408/1412 BKN012
ATIS : +44 1851 707 444



MetMap, La meteo Aeronautica in un colpo d'occhio ! - Copyright ORBIFLY Dicembre 2007 - Disclaimer

ORBIFLY MET'MAP TEAM :

Programmazione e sviluppo : Alexandra Zaïnal
Concezione : Baudouin d'Aumeries
Aiuto per la programmazione : Marc-Olivier Méhu
Supporto tecnico e logistico : Manuel Goepfert
Aiuto per la traduzione : Arnaldo La Scala

Contatto : metmap@orbifly.com




FONTI E CREDITI :

   NOAA